메인 페이지
METAR-TAF:

METAR-TAF

공항 :

Northwest Arkansas Regional Airport

Fayetteville, 아칸소, 미국

위도: 36-16-55N, 경도: 094-18-25W, 고도: 392m

현재 날씨관측

예보는 8분 전, 13:31시(UTC)에 발표되었습니다.
남남서6kt
온도 21°C
습도 88%
기압 1016 hPa
시정: 1.2km
고도 700ft 상공 구름 보통
고도 1100ft 상공 구름 보통
고도 2000ft 상공 흐림
시계 내 뇌우, 강한비, 박무

METAR: KXNA 141331Z 20006KT 3/4SM R16/3000V5000FT VCTS +RA BR SCT007 SCT011 OVC020 21/19 A3001 RMK AO2 LTG DSNT SW AND W P0037 T02060194

시각: 08:39 (13:39 UTC)

예보

예보는 2 시간 12분 전, 11:27시(UTC)에 발표되었습니다.
예보 대상 시간: 14일 12시부터 15일 12시까지 (UTC)
9kt
시정: 8.0km
고도 800ft 상공 구름 조금
고도 4500ft 상공 구름 많음
고도 6000ft 상공 흐림
소나기, 박무
일시적
14일 12시부터 14일 16시까지 (UTC)
시정: 4.8km
고도 2500ft 상공 흐림, 적란운.
뇌우, 비, 박무
14일 2000시부터 (UTC)
12kt
시정: 10km
고도 2000ft 상공 구름 보통
고도 4000ft 상공 흐림
15일 0000시부터 (UTC)
8kt
시정: 10km
고도 2000ft 상공 구름 보통
고도 4000ft 상공 구름 많음
확률 30%
15일 06시부터 15일 12시까지 (UTC)
시정: 4.8km
고도 1500ft 상공 흐림, 적란운.
뇌우, 비, 박무

TAF: KXNA 141127Z 1412/1512 17009KT 5SM SHRA BR FEW008 BKN045 OVC060 TEMPO 1412/1416 3SM TSRA BR OVC025CB FM142000 19012KT P6SM SCT020 OVC040 FM150000 19008KT P6SM SCT020 BKN040 PROB30 1506/1512 3SM TSRA BR OVC015CB

4,000개 이상의 공항 관측 자료 및 예보 (METAR 및 TAF 보고).

지도상에서 검색 가능한 기상관측소가 노란 점과 빨간 점으로 표시되어 있습니다.

기상관측소 명을 보려면 표시 위로 마우스를 이동하세요.

날씨 관측과 예보를 보려면 클릭하세요.

지도 변경 : 확대하려면 엑스 표시가 있는 녹색 버튼, 축소하려면 빼기 표시가 있는 녹색 버튼, 다음 페이지의 지도를 보려면 녹색 화살표를 클릭하세요.


METAR-TAF: